Nearby METAR Reports

 

KHAO - Hamilton, Ohio, USA
Distance from station: NW 8mi, 14km
Updated: 10/21/2018 10:53pm
Clear
Clear
 Wind from calm
Wind: Calm
Temperature: 32°F , 0°C
Dew Point: 28°F , -2°C
Humidity: 87%
Barometer: 30.24 inHg , 1024 hPa
Clouds: Clear
Visibility: 10 miles , 16 km
2018/10/22 02:53 KHAO 220253Z AUTO 00000KT 10SM CLR 00/M02 A3024 RMK AO2 SLP244 T00001017 56011
KMWO - Middletown/Hook, Ohio, USA
Distance from station: N 17mi, 27km
Updated: 10/21/2018 11:15pm
Clear
Clear
 Wind from calm
Wind: Calm
Temperature: 34°F , 1°C
Dew Point: 32°F , 0°C
Humidity: 93%
Barometer: 30.23 inHg , 1023.7 hPa
Clouds: Clear
Visibility: 10 miles , 16 km
2018/10/22 03:15 KMWO 220315Z AUTO 00000KT 10SM CLR 01/00 A3023 RMK AO2 T00080003
KCVG - Covington, Kentucky, USA
Distance from station: SW 22mi, 35km
Updated: 10/21/2018 10:52pm
Clear
Clear
 Wind from S
Wind: S 3 mph , 6 km/h
Temperature: 39°F , 4°C
Dew Point: 30°F , -1°C
Humidity: 70%
Barometer: 30.22 inHg , 1023.4 hPa
Clouds: Clear
Visibility: 10 miles , 16 km
2018/10/22 02:52 KCVG 220252Z 18003KT 10SM CLR 04/M01 A3022 RMK AO2 SLP236 T00391006 58010
 
KILN - Wilmington, Ohio, USA
Distance from station: ENE 33mi, 54km
Updated: 10/21/2018 10:54pm
Clear
Clear
 Wind from SSW
Wind: SSW 3 mph , 6 km/h
Temperature: 36°F , 2°C
Dew Point: 30°F , -1°C
Humidity: 81%
Barometer: 30.22 inHg , 1023.4 hPa
Clouds: Clear
Visibility: 10 miles , 16 km
2018/10/22 02:54 KILN 220254Z AUTO 20003KT 10SM CLR 02/M01 A3022 RMK AO2 SLP257 T00171011 56010
KDAY - Dayton, Ohio, USA
Distance from station: NNE 43mi, 70km
Updated: 10/21/2018 10:56pm
Few Clouds
Few Clouds
 Wind from SSW
Wind: SSW 7 mph , 11 km/h
Temperature: 39°F , 4°C
Wind Chill: 34°F , 1°C
Dew Point: 30°F , -1°C
Humidity: 70%
Barometer: 30.21 inHg , 1023 hPa
Clouds: Few Clouds
Visibility: 10 miles , 16 km
Cloud details: Few Clouds 25000 ft
2018/10/22 02:56 KDAY 220256Z 20006KT 10SM FEW250 04/M01 A3021 RMK AO2 SLP238 T00391011 56007
KTZR - Columbus/Bolton, Ohio, USA
Distance from station: ENE 80mi, 128km
Updated: 10/21/2018 11:15pm
Clear
Clear
 Wind from SSW
Wind: SSW 5 mph , 7 km/h
Temperature: 34°F , 1°C
Wind Chill: 29°F , -2°C
Dew Point: 30°F , -1°C
Humidity: 87%
Barometer: 30.23 inHg , 1023.7 hPa
Clouds: Clear
Visibility: 10 miles , 16 km
2018/10/22 03:15 KTZR 220315Z AUTO 21004KT 10SM CLR 01/M01 A3023 RMK AO2 T00141012
 
KMGN - Harbor Springs, Michigan, USA
Distance from station: N 417mi, 672km
Updated: 10/21/2018 11:15pm
Overcast
Overcast
 Wind from calm
Wind: Calm
Temperature: 36°F , 2°C
Dew Point: 32°F , 0°C
Humidity: 87%
Barometer: 30.04 inHg , 1017.3 hPa
Clouds: Overcast
Visibility: 10 miles , 16 km
Cloud details: Overcast 4000 ft
2018/10/22 03:15 KMGN 220315Z AUTO 00000KT 10SM OVC040 02/00 A3004 RMK AO2 T00300000
KIND - Indianapolis, Indiana, USA
Distance from station: WNW 99mi, 160km
Updated: 10/21/2018 10:54pm
Few Clouds
Few Clouds
 Wind from SSW
Wind: SSW 9 mph , 15 km/h
Temperature: 37°F , 3°C
Wind Chill: 30°F , -1°C
Dew Point: 28°F , -2°C
Humidity: 70%
Barometer: 30.20 inHg , 1022.7 hPa
Clouds: Few Clouds
Visibility: 10 miles , 16 km
Cloud details: Few Clouds 25000 ft
2018/10/22 02:54 KIND 220254Z 21008KT 10SM FEW250 03/M02 A3020 RMK AO2 SLP231 T00331022 56007
KLEX - Lexington, Kentucky, USA
Distance from station: S 87mi, 141km
Updated: 10/21/2018 10:54pm
Clear
Clear
 Wind from S
Wind: S 7 mph , 11 km/h
Temperature: 37°F , 3°C
Wind Chill: 32°F , 0°C
Dew Point: 30°F , -1°C
Humidity: 75%
Barometer: 30.25 inHg , 1024.4 hPa
Clouds: Clear
Visibility: 10 miles , 16 km
2018/10/22 02:54 KLEX 220254Z 17006KT 10SM CLR 03/M01 A3025 RMK AO2 SLP247 T00331006 58012
 
KSDF - Louisville, Kentucky, USA
Distance from station: SW 104mi, 167km
Updated: 10/21/2018 10:56pm
Clear
Clear
 Wind from SSE
Wind: SSE 3 mph , 6 km/h
Temperature: 43°F , 6°C
Dew Point: 34°F , 1°C
Humidity: 71%
Barometer: 30.23 inHg , 1023.7 hPa
Clouds: Clear
Visibility: 10 miles , 16 km
2018/10/22 02:56 KSDF 220256Z 16003KT 10SM CLR 06/01 A3023 RMK AO2 SLP239 T00560011 56016 $